createdAt,value
2022-10-22T00:01:09.800Z,5.98
2022-10-22T00:03:37.873Z,6.00
2022-10-22T00:06:06.531Z,6.03
2022-10-22T00:08:34.679Z,6.00
2022-10-22T00:11:12.520Z,6.00
2022-10-22T00:13:41.348Z,5.92
2022-10-22T00:16:09.621Z,6.04
2022-10-22T00:18:37.880Z,6.00
2022-10-22T00:21:06.694Z,5.98
2022-10-22T00:23:34.901Z,5.90
2022-10-22T00:26:02.769Z,5.78
2022-10-22T00:28:30.710Z,5.72
2022-10-22T00:31:00.297Z,5.65
2022-10-22T00:33:29.809Z,5.73
2022-10-22T00:35:58.318Z,5.70
2022-10-22T00:38:26.281Z,5.62
2022-10-22T00:40:54.479Z,5.53
2022-10-22T00:43:22.714Z,5.47
2022-10-22T00:45:50.704Z,5.50
2022-10-22T00:48:30.225Z,5.42
2022-10-22T00:51:08.542Z,5.41
2022-10-22T00:53:51.503Z,5.44
2022-10-22T00:56:21.033Z,5.41
2022-10-22T00:58:56.024Z,5.43
2022-10-22T01:01:30.217Z,5.39
2022-10-22T01:03:58.876Z,5.38
2022-10-22T01:06:30.918Z,5.36
2022-10-22T01:09:01.785Z,5.40
2022-10-22T01:12:02.556Z,5.41
2022-10-22T01:15:05.993Z,5.40
2022-10-22T01:17:49.003Z,5.43
2022-10-22T01:20:39.559Z,5.33
2022-10-22T01:23:34.964Z,5.30
2022-10-22T01:26:33.876Z,5.19
2022-10-22T01:29:11.486Z,4.93
2022-10-22T01:31:45.367Z,4.94
2022-10-22T01:34:17.610Z,4.93
2022-10-22T01:36:48.316Z,4.99
2022-10-22T01:39:17.797Z,5.00
2022-10-22T01:41:46.398Z,5.04
2022-10-22T01:44:32.327Z,4.95
2022-10-22T01:47:24.959Z,5.01
2022-10-22T01:50:15.916Z,5.07
2022-10-22T01:53:06.134Z,5.01
2022-10-22T01:56:02.745Z,4.97
2022-10-22T01:59:02.052Z,4.90
2022-10-22T02:03:06.119Z,4.77
2022-10-22T02:05:46.146Z,4.76
2022-10-22T02:08:20.372Z,4.83
2022-10-22T02:10:49.820Z,4.84
2022-10-22T02:13:37.849Z,4.77
2022-10-22T02:16:09.956Z,4.69
2022-10-22T02:18:42.905Z,4.63
2022-10-22T02:21:11.250Z,4.62
2022-10-22T02:23:39.682Z,4.63
2022-10-22T02:26:16.646Z,4.68
2022-10-22T02:29:00.111Z,4.73
2022-10-22T02:31:34.513Z,4.73
2022-10-22T02:34:10.282Z,4.76
2022-10-22T02:36:40.695Z,4.83
2022-10-22T02:39:11.483Z,4.65
2022-10-22T02:41:39.875Z,4.65
2022-10-22T02:44:10.221Z,4.70
2022-10-22T02:46:40.375Z,4.64
2022-10-22T02:49:08.365Z,4.53
2022-10-22T02:51:36.596Z,4.64
2022-10-22T02:54:04.879Z,4.50
2022-10-22T02:56:33.231Z,4.60
2022-10-22T02:59:01.139Z,4.68
2022-10-22T03:01:29.125Z,4.69
2022-10-22T03:03:57.058Z,4.63
2022-10-22T03:08:54.291Z,4.79
2022-10-22T03:11:22.253Z,4.77
2022-10-22T03:13:50.184Z,4.67
2022-10-22T03:16:18.080Z,4.55
2022-10-22T03:18:46.054Z,4.53
2022-10-22T03:21:24.115Z,4.43
2022-10-22T03:23:52.651Z,4.33
2022-10-22T03:26:21.324Z,4.41
2022-10-22T03:28:49.481Z,4.08
2022-10-22T03:31:17.513Z,3.65
2022-10-22T03:33:45.344Z,3.58
2022-10-22T03:36:13.458Z,3.63
2022-10-22T03:38:42.115Z,3.76
2022-10-22T03:41:10.514Z,3.86
2022-10-22T03:43:39.484Z,4.00
2022-10-22T03:46:07.911Z,3.99
2022-10-22T03:48:35.922Z,4.05
2022-10-22T03:51:04.040Z,4.13
2022-10-22T03:53:32.149Z,4.07
2022-10-22T03:56:00.036Z,4.09
2022-10-22T03:58:28.034Z,4.19
2022-10-22T04:00:55.959Z,4.20
2022-10-22T04:03:23.981Z,4.29
2022-10-22T04:05:51.913Z,4.29
2022-10-22T04:08:19.816Z,4.15
2022-10-22T04:10:53.753Z,4.06
2022-10-22T04:13:21.801Z,4.21
2022-10-22T04:15:49.889Z,4.03
2022-10-22T04:18:22.182Z,4.24
2022-10-22T04:20:52.494Z,4.41
2022-10-22T04:23:20.453Z,4.45
2022-10-22T04:25:48.343Z,4.53
2022-10-22T04:28:16.358Z,4.39
2022-10-22T04:30:44.248Z,4.58
2022-10-22T04:33:12.186Z,4.68
2022-10-22T04:35:40.409Z,4.75
2022-10-22T04:38:08.495Z,4.57
2022-10-22T04:40:36.514Z,4.53
2022-10-22T04:43:04.466Z,4.50
2022-10-22T04:45:36.518Z,4.59
2022-10-22T04:48:04.704Z,4.40
2022-10-22T04:50:32.572Z,4.54
2022-10-22T04:53:00.633Z,4.66
2022-10-22T04:58:02.065Z,4.87
2022-10-22T05:00:30.018Z,5.00
2022-10-22T05:02:58.049Z,5.10
2022-10-22T05:05:26.096Z,5.16
2022-10-22T05:07:54.077Z,5.19
2022-10-22T05:10:22.062Z,5.23
2022-10-22T05:12:50.319Z,5.29
2022-10-22T05:15:18.279Z,5.32
2022-10-22T05:17:47.198Z,5.37
2022-10-22T05:20:15.193Z,5.08
2022-10-22T05:22:43.240Z,5.19
2022-10-22T05:25:12.409Z,4.92
2022-10-22T05:27:40.538Z,5.20
2022-10-22T05:30:08.894Z,5.38
2022-10-22T05:32:36.970Z,5.48
2022-10-22T05:35:05.278Z,5.49
2022-10-22T05:37:33.279Z,5.53
2022-10-22T05:40:12.529Z,5.57
2022-10-22T05:42:48.278Z,5.20
2022-10-22T05:45:16.413Z,5.41
2022-10-22T05:47:44.450Z,5.23
2022-10-22T05:50:12.286Z,4.91
2022-10-22T05:52:40.568Z,5.27
2022-10-22T05:55:08.904Z,5.11
2022-10-22T05:57:37.113Z,5.03
2022-10-22T06:00:06.188Z,5.08
2022-10-22T06:02:34.481Z,5.06
2022-10-22T06:05:02.784Z,5.31
2022-10-22T06:07:31.041Z,5.35
2022-10-22T06:09:59.786Z,5.59
2022-10-22T06:12:28.026Z,5.44
2022-10-22T06:14:56.070Z,5.76
2022-10-22T06:17:24.087Z,5.62
2022-10-22T06:19:52.066Z,5.48
2022-10-22T06:22:20.229Z,5.61
2022-10-22T06:24:48.234Z,5.95
2022-10-22T06:27:16.282Z,6.12
2022-10-22T06:29:44.238Z,6.38
2022-10-22T06:32:12.254Z,6.37
2022-10-22T06:34:40.857Z,6.62
2022-10-22T06:37:10.901Z,6.76
2022-10-22T06:39:39.623Z,6.85
2022-10-22T06:42:07.758Z,6.77
2022-10-22T06:44:35.793Z,6.68
2022-10-22T06:47:04.359Z,7.03
2022-10-22T06:49:32.556Z,7.13
2022-10-22T06:52:00.713Z,7.21
2022-10-22T06:54:28.717Z,7.59
2022-10-22T06:56:56.727Z,7.60
2022-10-22T06:59:24.712Z,7.60
2022-10-22T07:01:52.986Z,7.67
2022-10-22T07:04:20.897Z,7.84
2022-10-22T07:06:48.918Z,7.80
2022-10-22T07:11:50.318Z,8.31
2022-10-22T07:14:18.361Z,8.46
2022-10-22T07:16:47.154Z,8.61
2022-10-22T07:19:15.313Z,8.84
2022-10-22T07:21:43.314Z,9.02
2022-10-22T07:24:11.531Z,9.24
2022-10-22T07:26:39.769Z,9.35
2022-10-22T07:29:08.223Z,9.87
2022-10-22T07:31:36.612Z,11.74
2022-10-22T07:34:05.035Z,12.97
2022-10-22T07:36:34.031Z,13.66
2022-10-22T07:39:03.076Z,13.87
2022-10-22T07:41:31.863Z,13.98
2022-10-22T07:44:00.140Z,13.93
2022-10-22T07:46:28.563Z,13.70
2022-10-22T07:48:56.823Z,14.15
2022-10-22T07:51:24.845Z,13.72
2022-10-22T07:53:52.906Z,13.60
2022-10-22T07:56:21.112Z,13.56
2022-10-22T07:58:49.207Z,13.22
2022-10-22T08:01:17.546Z,13.43
2022-10-22T08:03:46.033Z,13.61
2022-10-22T08:06:15.026Z,13.56
2022-10-22T08:08:45.952Z,13.45
2022-10-22T08:11:14.354Z,13.56
2022-10-22T08:13:45.323Z,13.72
2022-10-22T08:16:14.524Z,13.91
2022-10-22T08:18:42.750Z,14.39
2022-10-22T08:21:12.608Z,14.66
2022-10-22T08:23:40.667Z,15.58
2022-10-22T08:26:09.494Z,15.91
2022-10-22T08:28:38.029Z,16.04
2022-10-22T08:31:07.938Z,16.02
2022-10-22T08:33:36.873Z,16.77
2022-10-22T08:36:06.192Z,17.46
2022-10-22T08:38:35.681Z,17.77
2022-10-22T08:41:16.402Z,18.32
2022-10-22T08:43:58.271Z,18.40
2022-10-22T08:46:47.343Z,18.95
2022-10-22T08:49:21.509Z,19.63
2022-10-22T08:51:50.822Z,20.31
2022-10-22T08:54:54.019Z,19.62
2022-10-22T08:57:28.304Z,19.37
2022-10-22T09:00:15.290Z,18.73
2022-10-22T09:02:44.064Z,18.64
2022-10-22T09:05:20.865Z,18.93
2022-10-22T09:07:50.739Z,19.51
2022-10-22T09:10:22.233Z,19.59
2022-10-22T09:12:50.763Z,19.87
2022-10-22T09:15:20.379Z,20.14
2022-10-22T09:18:14.950Z,20.55
2022-10-22T09:20:50.225Z,20.82
2022-10-22T09:23:28.489Z,21.42
2022-10-22T09:25:57.990Z,21.58
2022-10-22T09:28:26.936Z,21.63
2022-10-22T09:30:55.175Z,21.97
2022-10-22T09:33:28.705Z,22.53
2022-10-22T09:36:07.176Z,23.58
2022-10-22T09:38:41.801Z,23.32
2022-10-22T09:41:09.965Z,22.77
2022-10-22T09:43:38.279Z,22.57
2022-10-22T09:46:14.882Z,23.10
2022-10-22T09:48:54.314Z,22.83
2022-10-22T09:51:37.008Z,23.16
2022-10-22T09:54:20.144Z,23.99
2022-10-22T09:56:53.963Z,24.13
2022-10-22T09:59:31.386Z,25.41
2022-10-22T10:02:13.612Z,26.35
2022-10-22T10:04:52.724Z,26.65
2022-10-22T10:07:23.905Z,26.95
2022-10-22T10:09:53.821Z,27.82
2022-10-22T10:15:34.276Z,28.29
2022-10-22T10:18:15.004Z,28.13
2022-10-22T10:20:59.811Z,27.61
2022-10-22T10:23:55.869Z,28.57
2022-10-22T10:26:41.771Z,29.26
2022-10-22T10:32:50.452Z,30.19
2022-10-22T10:35:37.711Z,30.31
2022-10-22T10:38:06.140Z,29.24
2022-10-22T10:40:48.295Z,28.57
2022-10-22T10:43:37.184Z,28.53
2022-10-22T10:46:11.880Z,28.63
2022-10-22T10:48:55.929Z,28.44
2022-10-22T10:51:42.360Z,27.53
2022-10-22T10:54:35.935Z,26.67
2022-10-22T10:57:19.734Z,26.08
2022-10-22T11:00:07.482Z,25.59
2022-10-22T11:05:37.956Z,26.60
2022-10-22T11:08:11.874Z,26.71
2022-10-22T11:11:01.187Z,26.79
2022-10-22T11:13:36.953Z,26.06
2022-10-22T11:16:21.059Z,25.60
2022-10-22T11:18:59.118Z,25.01
2022-10-22T11:22:05.359Z,24.82
2022-10-22T11:24:41.573Z,24.29
2022-10-22T11:27:30.313Z,24.25
2022-10-22T11:30:06.778Z,24.03
2022-10-22T11:32:35.280Z,23.85
2022-10-22T11:35:05.075Z,23.47
2022-10-22T11:37:35.734Z,23.29
2022-10-22T11:40:29.844Z,22.70
2022-10-22T11:43:03.724Z,22.86
2022-10-22T11:45:36.618Z,23.07
2022-10-22T11:48:17.151Z,23.21
2022-10-22T11:50:57.666Z,23.36
2022-10-22T11:53:26.017Z,23.40
2022-10-22T11:55:59.945Z,23.28
2022-10-22T11:58:33.861Z,23.38
2022-10-22T12:01:01.826Z,23.53
2022-10-22T12:03:32.462Z,23.55
2022-10-22T12:06:21.080Z,23.44
2022-10-22T12:08:49.087Z,23.24
2022-10-22T12:11:20.586Z,23.28
2022-10-22T12:14:12.676Z,23.34
2022-10-22T12:17:01.233Z,23.44
2022-10-22T12:19:35.145Z,23.46
2022-10-22T12:22:25.929Z,23.33
2022-10-22T12:24:57.444Z,23.44
2022-10-22T12:27:30.189Z,23.35
2022-10-22T12:30:00.698Z,23.25
2022-10-22T12:32:37.657Z,23.35
2022-10-22T12:35:23.991Z,23.26
2022-10-22T12:37:54.662Z,23.08
2022-10-22T12:40:26.426Z,23.00
2022-10-22T12:42:57.755Z,22.93
2022-10-22T12:45:31.065Z,22.89
2022-10-22T12:48:05.476Z,22.74
2022-10-22T12:50:42.830Z,22.68
2022-10-22T12:53:31.949Z,22.64
2022-10-22T12:56:04.410Z,22.39
2022-10-22T12:58:55.747Z,22.47
2022-10-22T13:01:27.205Z,22.26
2022-10-22T13:04:13.543Z,22.15
2022-10-22T13:06:45.827Z,21.99
2022-10-22T13:09:19.671Z,21.98
2022-10-22T13:12:04.977Z,22.16
2022-10-22T13:14:35.945Z,22.01
2022-10-22T13:17:39.280Z,22.15
2022-10-22T13:20:21.006Z,22.33
2022-10-22T13:23:06.007Z,22.41
2022-10-22T13:25:37.455Z,22.59
2022-10-22T13:28:20.301Z,22.57
2022-10-22T13:31:24.907Z,22.42
2022-10-22T13:34:00.654Z,22.31
2022-10-22T13:36:30.562Z,22.13
2022-10-22T13:38:59.143Z,21.80
2022-10-22T13:41:32.461Z,21.53
2022-10-22T13:44:00.480Z,21.29
2022-10-22T13:46:29.787Z,21.14
2022-10-22T13:49:00.095Z,20.93
2022-10-22T13:51:36.496Z,20.77
2022-10-22T13:54:10.847Z,20.60
2022-10-22T13:56:39.094Z,20.42
2022-10-22T13:59:07.081Z,20.21
2022-10-22T14:01:36.541Z,20.15
2022-10-22T14:04:07.675Z,19.96
2022-10-22T14:09:15.487Z,19.60
2022-10-22T14:11:44.274Z,19.57
2022-10-22T14:14:14.599Z,19.43
2022-10-22T14:16:43.494Z,19.41
2022-10-22T14:19:17.013Z,19.38
2022-10-22T14:21:45.933Z,19.29
2022-10-22T14:24:14.543Z,19.17
2022-10-22T14:26:43.308Z,19.15
2022-10-22T14:29:11.971Z,19.12
2022-10-22T14:31:44.392Z,19.04
2022-10-22T14:34:15.936Z,18.90
2022-10-22T14:36:44.941Z,18.54
2022-10-22T14:39:14.058Z,18.43
2022-10-22T14:41:43.366Z,18.37
2022-10-22T14:44:15.062Z,18.32
2022-10-22T14:46:44.679Z,18.32
2022-10-22T14:49:13.469Z,18.21
2022-10-22T14:51:42.458Z,18.12
2022-10-22T14:54:11.152Z,17.89
2022-10-22T14:56:39.699Z,17.89
2022-10-22T14:59:08.287Z,17.71
2022-10-22T15:01:36.709Z,17.78
2022-10-22T15:04:05.564Z,17.71
2022-10-22T15:06:34.366Z,17.63
2022-10-22T15:09:02.575Z,17.60
2022-10-22T15:11:30.833Z,17.53
2022-10-22T15:13:59.706Z,17.51
2022-10-22T15:16:28.128Z,17.54
2022-10-22T15:18:57.554Z,17.51
2022-10-22T15:21:26.371Z,17.31
2022-10-22T15:23:54.824Z,16.86
2022-10-22T15:26:23.299Z,16.99
2022-10-22T15:28:51.776Z,16.99
2022-10-22T15:31:45.385Z,16.87
2022-10-22T15:34:18.497Z,16.81
2022-10-22T15:36:47.142Z,16.77
2022-10-22T15:39:16.615Z,16.63
2022-10-22T15:41:45.184Z,16.61
2022-10-22T15:44:25.219Z,16.50
2022-10-22T15:46:56.839Z,16.40
2022-10-22T15:49:27.607Z,16.22
2022-10-22T15:51:56.784Z,16.15
2022-10-22T15:54:28.997Z,16.06
2022-10-22T15:56:59.613Z,16.06
2022-10-22T15:59:28.405Z,15.92
2022-10-22T16:01:56.383Z,15.79
2022-10-22T16:04:24.865Z,15.77
2022-10-22T16:06:53.862Z,15.48
2022-10-22T16:09:24.661Z,15.29
2022-10-22T16:11:55.045Z,15.17
2022-10-22T16:14:24.406Z,15.04
2022-10-22T16:16:55.826Z,15.10
2022-10-22T16:19:25.447Z,14.97
2022-10-22T16:21:56.022Z,14.77
2022-10-22T16:24:24.806Z,14.83
2022-10-22T16:26:53.552Z,14.72
2022-10-22T16:29:22.128Z,14.76
2022-10-22T16:31:51.033Z,14.72
2022-10-22T16:34:19.552Z,14.68
2022-10-22T16:36:49.288Z,14.57
2022-10-22T16:39:17.969Z,14.44
2022-10-22T16:41:47.173Z,14.33
2022-10-22T16:44:15.788Z,14.16
2022-10-22T16:46:44.250Z,14.26
2022-10-22T16:49:12.835Z,13.94
2022-10-22T16:51:41.395Z,14.01
2022-10-22T16:54:12.628Z,14.11
2022-10-22T16:59:23.924Z,14.07
2022-10-22T17:01:52.882Z,14.00
2022-10-22T17:04:22.907Z,13.87
2022-10-22T17:06:51.629Z,13.88
2022-10-22T17:09:19.800Z,13.98
2022-10-22T17:11:53.123Z,13.96
2022-10-22T17:14:21.597Z,13.75
2022-10-22T17:16:53.812Z,13.78
2022-10-22T17:19:23.168Z,13.52
2022-10-22T17:21:51.663Z,13.70
2022-10-22T17:24:20.310Z,13.74
2022-10-22T17:26:48.961Z,13.63
2022-10-22T17:29:18.353Z,13.50
2022-10-22T17:31:46.787Z,13.46
2022-10-22T17:34:17.800Z,13.43
2022-10-22T17:36:46.146Z,13.44
2022-10-22T17:39:18.187Z,13.38
2022-10-22T17:41:47.133Z,13.31
2022-10-22T17:44:16.440Z,13.35
2022-10-22T17:46:45.672Z,13.26
2022-10-22T17:49:21.478Z,13.21
2022-10-22T17:51:50.286Z,13.12
2022-10-22T17:54:18.683Z,13.13
2022-10-22T17:56:46.925Z,12.95
2022-10-22T17:59:17.453Z,12.94
2022-10-22T18:01:47.360Z,13.01
2022-10-22T18:04:18.582Z,12.97
2022-10-22T18:06:48.425Z,12.87
2022-10-22T18:09:19.397Z,12.88
2022-10-22T18:11:50.485Z,12.68
2022-10-22T18:14:21.313Z,12.73
2022-10-22T18:16:51.373Z,12.78
2022-10-22T18:19:23.537Z,12.60
2022-10-22T18:21:52.601Z,12.55
2022-10-22T18:24:20.914Z,12.46
2022-10-22T18:26:49.633Z,12.47
2022-10-22T18:29:21.144Z,12.43
2022-10-22T18:31:50.332Z,12.34
2022-10-22T18:34:21.768Z,12.38
2022-10-22T18:36:52.681Z,12.32
2022-10-22T18:39:21.188Z,12.16
2022-10-22T18:41:49.780Z,11.96
2022-10-22T18:44:18.743Z,11.86
2022-10-22T18:46:46.951Z,11.97
2022-10-22T18:49:19.210Z,11.86
2022-10-22T18:51:53.034Z,11.87
2022-10-22T18:54:23.849Z,11.83
2022-10-22T18:56:56.302Z,11.66
2022-10-22T18:59:27.906Z,11.74
2022-10-22T19:01:59.970Z,11.69
2022-10-22T19:04:34.072Z,11.45
2022-10-22T19:07:04.138Z,11.54
2022-10-22T19:09:32.815Z,11.48
2022-10-22T19:12:01.546Z,11.36
2022-10-22T19:14:30.450Z,11.34
2022-10-22T19:16:59.237Z,11.36
2022-10-22T19:19:28.076Z,11.24
2022-10-22T19:21:57.011Z,11.32
2022-10-22T19:24:26.666Z,11.23
2022-10-22T19:26:55.190Z,11.03
2022-10-22T19:29:23.956Z,11.07
2022-10-22T19:31:52.632Z,11.18
2022-10-22T19:34:21.312Z,11.15
2022-10-22T19:36:52.108Z,11.23
2022-10-22T19:39:20.911Z,11.22
2022-10-22T19:41:49.928Z,11.17
2022-10-22T19:44:18.586Z,11.14
2022-10-22T19:46:47.289Z,10.60
2022-10-22T19:49:19.011Z,10.75
2022-10-22T19:51:50.614Z,10.60
2022-10-22T19:54:20.866Z,10.41
2022-10-22T19:56:50.414Z,10.62
2022-10-22T19:59:21.096Z,10.62
2022-10-22T20:01:49.770Z,10.60
2022-10-22T20:04:19.173Z,10.60
2022-10-22T20:06:47.845Z,10.58
2022-10-22T20:09:16.569Z,10.42
2022-10-22T20:11:45.000Z,10.23
2022-10-22T20:14:14.708Z,10.30
2022-10-22T20:16:44.206Z,10.34
2022-10-22T20:19:16.496Z,10.41
2022-10-22T20:21:48.804Z,10.43
2022-10-22T20:24:17.649Z,10.44
2022-10-22T20:26:47.547Z,10.25
2022-10-22T20:29:16.890Z,10.23
2022-10-22T20:31:46.541Z,10.26
2022-10-22T20:34:15.353Z,10.13
2022-10-22T20:36:43.464Z,10.20
2022-10-22T20:39:14.721Z,10.17
2022-10-22T20:41:43.530Z,10.16
2022-10-22T20:44:15.723Z,10.16
2022-10-22T20:46:44.755Z,10.08
2022-10-22T20:49:18.419Z,10.06
2022-10-22T20:51:47.176Z,10.15
2022-10-22T20:54:15.751Z,10.00
2022-10-22T20:56:44.239Z,10.07
2022-10-22T20:59:13.084Z,10.04
2022-10-22T21:01:45.477Z,10.02
2022-10-22T21:04:14.732Z,10.02
2022-10-22T21:06:43.525Z,9.79
2022-10-22T21:09:13.368Z,9.86
2022-10-22T21:11:43.712Z,9.81
2022-10-22T21:14:14.523Z,9.75
2022-10-22T21:16:45.714Z,9.77
2022-10-22T21:19:13.622Z,9.82
2022-10-22T21:21:41.643Z,9.85
2022-10-22T21:24:10.085Z,9.97
2022-10-22T21:26:42.644Z,9.59
2022-10-22T21:29:12.601Z,9.66
2022-10-22T21:31:40.705Z,9.20
2022-10-22T21:34:08.638Z,9.31
2022-10-22T21:36:36.886Z,9.44
2022-10-22T21:39:04.873Z,9.55
2022-10-22T21:41:33.667Z,9.65
2022-10-22T21:44:01.595Z,9.35
2022-10-22T21:46:30.033Z,9.31
2022-10-22T21:49:02.183Z,9.51
2022-10-22T21:51:32.819Z,9.07
2022-10-22T21:54:00.985Z,9.14
2022-10-22T21:56:32.963Z,8.84
2022-10-22T21:59:02.550Z,9.17
2022-10-22T22:01:31.015Z,9.26
2022-10-22T22:03:59.524Z,9.21
2022-10-22T22:06:33.177Z,9.35
2022-10-22T22:09:04.279Z,9.45
2022-10-22T22:11:32.905Z,9.23
2022-10-22T22:14:00.926Z,9.28
2022-10-22T22:16:31.606Z,9.12
2022-10-22T22:19:01.047Z,9.13
2022-10-22T22:21:29.830Z,9.38
2022-10-22T22:23:58.618Z,9.39
2022-10-22T22:26:30.035Z,9.43
2022-10-22T22:28:59.847Z,9.29
2022-10-22T22:31:30.489Z,9.46
2022-10-22T22:34:00.784Z,8.95
2022-10-22T22:36:33.793Z,9.14
2022-10-22T22:39:01.798Z,9.05
2022-10-22T22:41:29.726Z,9.17
2022-10-22T22:43:57.698Z,9.33
2022-10-22T22:46:27.239Z,9.35
2022-10-22T22:48:55.201Z,9.31
2022-10-22T22:51:23.404Z,9.40
2022-10-22T22:53:51.631Z,9.25
2022-10-22T22:56:23.609Z,9.27
2022-10-22T22:58:51.999Z,9.33
2022-10-22T23:01:22.835Z,9.29
2022-10-22T23:03:56.622Z,9.29
2022-10-22T23:06:26.127Z,9.12
2022-10-22T23:08:55.554Z,8.92
2022-10-22T23:11:25.396Z,8.94
2022-10-22T23:13:56.095Z,8.89
2022-10-22T23:16:26.716Z,8.90
2022-10-22T23:18:56.081Z,8.74
2022-10-22T23:21:30.007Z,8.89
2022-10-22T23:24:01.290Z,9.04
2022-10-22T23:26:34.881Z,9.03
2022-10-22T23:29:05.846Z,8.84
2022-10-22T23:31:34.549Z,9.01
2022-10-22T23:34:02.532Z,8.90
2022-10-22T23:36:30.665Z,8.85
2022-10-22T23:38:58.512Z,8.97
2022-10-22T23:41:26.470Z,8.97
2022-10-22T23:43:54.511Z,8.90
2022-10-22T23:46:22.633Z,8.94
2022-10-22T23:48:50.600Z,9.08
2022-10-22T23:51:18.580Z,9.11
2022-10-22T23:53:47.610Z,9.17
2022-10-22T23:56:18.392Z,9.10
2022-10-22T23:58:51.809Z,9.17
